Time;durP1;ratioP1;P1;durP2;ratioP2;P2;SDS_P1;SDS_P2;PMS_P1;PMS_P2;Temp;Humidity;BMP_temperature;BMP_pressure;BME280_temperature;BME280_humidity;BME280_pressure;Samples;Min_cycle;Max_cycle;Signal;HPM_P1;HPM_P2
2023/09/04 00:00:08;;;;;;;3.40;3.20;;;18.60;99.90;;;;;;5090610;28;20237;-77
2023/09/04 00:02:33;;;;;;;3.17;2.97;;;18.60;99.90;;;;;;5078021;28;20175;-79
2023/09/04 00:04:59;;;;;;;3.07;2.87;;;18.60;99.90;;;;;;5078068;28;20175;-78
2023/09/04 00:07:25;;;;;;;3.30;3.10;;;18.60;99.90;;;;;;5077957;28;20171;-78
2023/09/04 00:09:50;;;;;;;3.07;2.97;;;18.60;99.90;;;;;;5080131;28;20594;-78
2023/09/04 00:12:16;;;;;;;2.93;2.83;;;18.60;99.90;;;;;;5096628;28;20183;-79
2023/09/04 00:14:42;;;;;;;3.40;3.10;;;18.60;99.90;;;;;;5078438;28;20179;-79
2023/09/04 00:17:07;;;;;;;4.00;2.77;;;18.60;99.90;;;;;;5077392;28;20644;-78
2023/09/04 00:19:34;;;;;;;3.23;3.13;;;18.60;99.90;;;;;;5061918;28;20211;-78
2023/09/04 00:22:00;;;;;;;4.53;2.73;;;18.70;99.90;;;;;;5078624;28;20202;-80
2023/09/04 00:24:26;;;;;;;3.10;2.90;;;18.60;99.90;;;;;;5060225;28;20190;-78
2023/09/04 00:26:52;;;;;;;3.10;2.97;;;18.50;99.90;;;;;;5077811;28;20179;-78
2023/09/04 00:29:17;;;;;;;3.13;2.93;;;18.40;99.90;;;;;;5079198;28;20175;-80
2023/09/04 00:31:43;;;;;;;2.90;2.80;;;18.40;99.90;;;;;;5089427;28;20179;-78
2023/09/04 00:34:09;;;;;;;3.00;2.80;;;18.40;99.90;;;;;;5083588;28;20647;-79
2023/09/04 00:36:35;;;;;;;3.13;2.93;;;18.30;99.90;;;;;;5082428;28;20175;-84
2023/09/04 00:39:00;;;;;;;3.23;3.00;;;18.40;99.90;;;;;;5084431;28;20267;-77
2023/09/04 00:41:26;;;;;;;3.33;3.03;;;18.40;99.90;;;;;;5087756;28;20200;-79
2023/09/04 00:43:52;;;;;;;2.90;2.70;;;18.40;99.90;;;;;;5093744;28;20172;-79
2023/09/04 00:46:18;;;;;;;3.10;3.00;;;18.40;99.90;;;;;;5083353;28;20234;-81
2023/09/04 00:48:45;;;;;;;3.10;2.97;;;18.30;99.90;;;;;;5079359;28;20645;-79
2023/09/04 00:51:11;;;;;;;3.03;2.93;;;18.30;99.90;;;;;;5084408;28;20692;-78
2023/09/04 00:53:37;;;;;;;3.07;2.87;;;18.20;99.90;;;;;;5086476;28;20201;-78
2023/09/04 00:56:05;;;;;;;3.07;2.77;;;18.20;99.90;;;;;;5077212;28;20175;-80
2023/09/04 00:58:32;;;;;;;3.20;2.90;;;18.10;99.90;;;;;;5076375;28;20167;-79
2023/09/04 01:01:00;;;;;;;3.07;2.90;;;18.10;99.90;;;;;;5058790;28;20190;-80
2023/09/04 01:03:28;;;;;;;3.27;3.07;;;18.10;99.90;;;;;;5076602;28;20661;-77
2023/09/04 01:05:54;;;;;;;3.00;2.80;;;18.10;99.90;;;;;;5076354;28;20718;-81
2023/09/04 01:08:20;;;;;;;3.00;2.80;;;18.10;99.90;;;;;;5078451;28;20186;-81
2023/09/04 01:11:07;;;;;;;2.73;2.57;;;18.10;99.90;;;;;;5077873;28;20190;-80
2023/09/04 01:13:50;;;;;;;2.83;2.63;;;18.10;99.90;;;;;;5078272;28;20159;-80
2023/09/04 01:16:17;;;;;;;2.80;2.70;;;18.10;99.90;;;;;;5097742;28;20166;-79
2023/09/04 01:18:44;;;;;;;2.90;2.70;;;18.10;99.90;;;;;;5086189;28;20230;-80
2023/09/04 01:21:10;;;;;;;2.37;2.27;;;18.10;99.90;;;;;;5076981;28;20214;-79
2023/09/04 01:23:35;;;;;;;3.10;2.90;;;18.10;99.90;;;;;;5077723;28;20195;-81
2023/09/04 01:26:13;;;;;;;3.13;2.57;;;18.10;99.90;;;;;;5080553;28;20579;-81
2023/09/04 01:28:57;;;;;;;2.80;2.70;;;18.10;99.90;;;;;;5064393;28;20253;-81
2023/09/04 01:31:29;;;;;;;2.50;2.30;;;18.00;99.90;;;;;;5076289;28;20171;-81
2023/09/04 01:34:18;;;;;;;2.60;2.50;;;18.00;99.90;;;;;;5076291;28;20696;-80
2023/09/04 01:36:45;;;;;;;2.47;2.37;;;18.00;99.90;;;;;;5087466;28;20158;-79
2023/09/04 01:39:11;;;;;;;3.13;2.80;;;18.00;99.90;;;;;;5070093;28;21076;-79
2023/09/04 01:41:38;;;;;;;2.77;2.57;;;18.00;99.90;;;;;;5077138;28;20172;-80
2023/09/04 01:44:05;;;;;;;3.63;2.53;;;18.00;99.90;;;;;;5075954;28;20695;-80
2023/09/04 01:46:31;;;;;;;5.27;2.53;;;18.00;99.90;;;;;;5076718;28;20232;-77
2023/09/04 01:48:57;;;;;;;2.50;2.40;;;18.00;99.90;;;;;;5092068;28;20175;-80
2023/09/04 01:51:23;;;;;;;2.60;2.50;;;18.10;99.90;;;;;;5096045;28;20175;-79
2023/09/04 01:53:49;;;;;;;2.67;2.57;;;18.10;99.90;;;;;;5076654;28;20199;-82
2023/09/04 01:56:14;;;;;;;2.13;2.03;;;18.10;99.90;;;;;;5076148;28;20199;-82
2023/09/04 01:58:40;;;;;;;2.77;2.67;;;18.00;99.90;;;;;;5075756;28;20178;-80
2023/09/04 02:01:06;;;;;;;2.70;2.50;;;18.00;99.90;;;;;;5075249;28;20175;-79
2023/09/04 02:03:33;;;;;;;2.43;2.33;;;18.00;99.90;;;;;;5074840;28;20523;-77
2023/09/04 02:05:59;;;;;;;2.63;2.53;;;17.90;99.90;;;;;;5074121;28;20185;-79
2023/09/04 02:08:24;;;;;;;2.50;2.40;;;17.90;99.90;;;;;;5075000;28;20175;-80
2023/09/04 02:10:50;;;;;;;2.83;2.50;;;17.80;99.90;;;;;;5075907;28;20224;-81
2023/09/04 02:13:16;;;;;;;3.47;2.57;;;17.70;99.90;;;;;;5084519;28;20183;-80
2023/09/04 02:15:42;;;;;;;3.23;2.97;;;17.70;99.90;;;;;;5079763;28;20174;-82
2023/09/04 02:18:08;;;;;;;2.40;2.30;;;17.70;99.90;;;;;;5076788;28;20701;-79
2023/09/04 02:20:34;;;;;;;2.53;2.40;;;17.60;99.90;;;;;;5079102;28;20199;-82
2023/09/04 02:23:00;;;;;;;2.47;2.30;;;17.60;99.90;;;;;;5075723;28;20219;-79
2023/09/04 02:25:26;;;;;;;2.60;2.50;;;17.60;99.90;;;;;;5074562;28;20654;-82
2023/09/04 02:27:52;;;;;;;5.23;2.60;;;17.50;99.90;;;;;;5075171;28;20171;-82
2023/09/04 02:30:18;;;;;;;3.80;2.60;;;17.50;99.90;;;;;;5075625;28;20178;-82
2023/09/04 02:32:44;;;;;;;2.67;2.47;;;17.40;99.90;;;;;;5084334;28;20178;-81
2023/09/04 02:35:10;;;;;;;2.50;2.30;;;17.40;99.90;;;;;;5091712;28;20167;-80
2023/09/04 02:37:36;;;;;;;3.60;2.70;;;17.40;99.90;;;;;;5060612;28;20751;-79
2023/09/04 02:40:05;;;;;;;2.60;2.40;;;17.30;99.90;;;;;;5076307;28;20266;-79
2023/09/04 02:42:31;;;;;;;2.80;2.60;;;17.40;99.90;;;;;;5074936;28;20201;-80
2023/09/04 02:44:57;;;;;;;2.40;2.30;;;17.40;99.90;;;;;;5074846;28;20210;-80
2023/09/04 02:47:23;;;;;;;2.40;2.30;;;17.40;99.90;;;;;;5074470;28;20174;-78
2023/09/04 02:49:49;;;;;;;3.07;2.37;;;17.40;99.90;;;;;;5074538;28;20183;-80
2023/09/04 02:52:16;;;;;;;3.93;2.70;;;17.40;99.90;;;;;;5074318;28;20167;-80
2023/09/04 02:54:43;;;;;;;3.10;2.90;;;17.30;99.90;;;;;;5074297;28;20170;-81
2023/09/04 02:57:09;;;;;;;3.17;2.20;;;17.20;99.90;;;;;;5074179;28;20172;-80
2023/09/04 02:59:35;;;;;;;2.80;2.60;;;17.20;99.90;;;;;;5073948;28;20207;-79
2023/09/04 03:02:01;;;;;;;2.50;2.40;;;17.20;99.90;;;;;;5074032;28;20561;-79
2023/09/04 03:04:28;;;;;;;2.90;2.70;;;17.20;99.90;;;;;;5074209;28;20170;-79
2023/09/04 03:06:54;;;;;;;3.93;2.50;;;17.20;99.90;;;;;;5056445;28;20209;-82
2023/09/04 03:09:19;;;;;;;3.50;3.30;;;17.10;99.90;;;;;;5074416;28;20206;-80
2023/09/04 03:11:45;;;;;;;5.57;2.50;;;17.00;99.90;;;;;;5074156;28;20588;-80
2023/09/04 03:14:11;;;;;;;2.50;2.40;;;17.00;99.90;;;;;;5079899;28;20170;-80
2023/09/04 03:16:37;;;;;;;2.83;2.63;;;17.00;99.90;;;;;;5088426;28;20630;-78
2023/09/04 03:19:03;;;;;;;3.20;2.87;;;17.00;99.90;;;;;;5075994;28;20198;-79
2023/09/04 03:21:31;;;;;;;4.40;2.70;;;16.90;99.90;;;;;;5076827;28;20284;-80
2023/09/04 03:23:56;;;;;;;3.50;2.60;;;16.90;99.90;;;;;;5076293;28;20213;-81
2023/09/04 03:26:22;;;;;;;2.83;2.60;;;16.80;99.90;;;;;;5076598;28;20538;-80
2023/09/04 03:28:48;;;;;;;2.77;2.57;;;16.90;99.90;;;;;;5075697;28;20167;-79
2023/09/04 03:31:15;;;;;;;2.50;2.30;;;16.90;99.90;;;;;;5055907;28;20183;-80
2023/09/04 03:33:43;;;;;;;2.70;2.47;;;16.80;99.90;;;;;;5056141;28;20640;-79
2023/09/04 03:36:11;;;;;;;4.90;2.77;;;16.90;99.90;;;;;;5084472;28;20171;-78
2023/09/04 03:38:39;;;;;;;3.90;2.60;;;16.80;99.90;;;;;;5059743;28;20630;-79
2023/09/04 03:41:05;;;;;;;2.70;2.50;;;16.80;99.90;;;;;;5073936;28;20197;-79
2023/09/04 03:43:31;;;;;;;4.87;2.63;;;16.70;99.90;;;;;;5055152;28;20175;-79
2023/09/04 03:45:57;;;;;;;3.87;2.67;;;16.70;99.90;;;;;;5074325;28;20175;-81
2023/09/04 03:48:23;;;;;;;2.87;2.70;;;16.70;99.90;;;;;;5079646;28;20171;-80
2023/09/04 03:50:48;;;;;;;2.87;2.77;;;16.60;99.90;;;;;;5075601;28;20174;-78
2023/09/04 03:53:14;;;;;;;2.60;2.50;;;16.60;99.90;;;;;;5079854;28;20202;-80
2023/09/04 03:55:40;;;;;;;2.80;2.50;;;16.60;99.90;;;;;;5076224;28;20171;-81
2023/09/04 03:58:05;;;;;;;2.70;2.40;;;16.60;99.90;;;;;;5073595;28;20669;-78
2023/09/04 04:00:31;;;;;;;2.73;2.60;;;16.60;99.90;;;;;;5074176;28;20204;-79
2023/09/04 04:02:57;;;;;;;3.07;2.90;;;16.50;99.90;;;;;;5076330;28;20179;-77
2023/09/04 04:05:23;;;;;;;2.93;2.73;;;16.60;99.90;;;;;;5055731;28;20175;-82
2023/09/04 04:07:49;;;;;;;2.67;2.47;;;16.60;99.90;;;;;;5073467;28;20256;-81
2023/09/04 04:10:15;;;;;;;2.83;2.63;;;16.60;99.90;;;;;;5073483;28;20167;-79
2023/09/04 04:12:42;;;;;;;2.60;2.40;;;16.50;99.90;;;;;;5074174;28;20187;-81
2023/09/04 04:15:08;;;;;;;2.80;2.60;;;16.40;99.90;;;;;;5075555;28;20579;-76
2023/09/04 04:17:35;;;;;;;3.03;2.70;;;16.50;99.90;;;;;;5056751;28;20223;-78
2023/09/04 04:20:01;;;;;;;3.60;3.33;;;16.40;99.90;;;;;;5074596;28;20225;-78
2023/09/04 04:22:27;;;;;;;4.93;2.50;;;16.40;99.90;;;;;;5076290;28;20655;-77
2023/09/04 04:24:52;;;;;;;2.53;2.33;;;16.30;99.90;;;;;;5088021;28;20193;-79
2023/09/04 04:27:18;;;;;;;3.03;2.83;;;16.30;99.90;;;;;;5093071;28;20181;-77
2023/09/04 04:29:45;;;;;;;3.97;2.97;;;16.30;99.90;;;;;;5081857;28;20172;-79
2023/09/04 04:32:14;;;;;;;3.00;2.80;;;16.30;99.90;;;;;;5081672;28;20167;-76
2023/09/04 04:34:41;;;;;;;3.33;2.97;;;16.30;99.90;;;;;;5060625;28;20542;-81
2023/09/04 04:37:07;;;;;;;3.20;3.00;;;16.40;99.90;;;;;;5075113;28;20175;-79
2023/09/04 04:39:32;;;;;;;2.97;2.77;;;16.30;99.90;;;;;;5057046;28;20677;-79
2023/09/04 04:41:58;;;;;;;6.73;3.50;;;16.40;99.90;;;;;;5074170;28;20247;-80
2023/09/04 04:44:24;;;;;;;3.33;3.13;;;16.40;99.90;;;;;;5056398;28;20267;-80
2023/09/04 04:46:50;;;;;;;3.30;3.10;;;16.30;99.90;;;;;;5059465;28;20214;-79
2023/09/04 04:49:21;;;;;;;3.10;2.80;;;16.40;99.90;;;;;;5079469;28;20174;-76
2023/09/04 04:51:49;;;;;;;3.00;2.70;;;16.30;99.90;;;;;;5061284;28;20179;-79
2023/09/04 04:54:15;;;;;;;2.70;2.60;;;16.30;99.90;;;;;;5078836;28;20175;-80
2023/09/04 04:56:41;;;;;;;3.30;3.00;;;16.30;99.90;;;;;;5089566;28;20253;-81
2023/09/04 04:59:08;;;;;;;2.80;2.60;;;16.40;99.90;;;;;;5081999;28;20673;-80
2023/09/04 05:01:34;;;;;;;3.33;3.00;;;16.50;99.90;;;;;;5081816;28;20584;-80
2023/09/04 05:04:00;;;;;;;2.50;2.33;;;16.60;99.90;;;;;;5089457;28;20169;-79
2023/09/04 05:06:26;;;;;;;3.97;2.80;;;16.50;99.90;;;;;;5089985;28;20167;-78
2023/09/04 05:08:52;;;;;;;2.83;2.70;;;16.60;99.90;;;;;;5079469;28;20201;-79
2023/09/04 05:11:18;;;;;;;3.00;2.80;;;16.50;99.90;;;;;;5060980;28;20183;-80
2023/09/04 05:13:44;;;;;;;3.10;2.90;;;16.40;99.90;;;;;;5080509;28;20175;-81
2023/09/04 05:16:10;;;;;;;7.23;3.13;;;16.40;99.90;;;;;;5066463;28;20265;-80
2023/09/04 05:18:36;;;;;;;2.60;2.50;;;16.50;99.90;;;;;;5081989;28;20770;-78
2023/09/04 05:21:06;;;;;;;3.80;2.77;;;16.50;99.90;;;;;;5060422;28;20260;-82
2023/09/04 05:23:34;;;;;;;3.00;2.80;;;16.50;99.90;;;;;;5078867;28;20231;-80
2023/09/04 05:26:00;;;;;;;3.13;2.83;;;16.50;99.90;;;;;;5079052;28;20168;-79
2023/09/04 05:28:26;;;;;;;2.90;2.70;;;16.50;99.90;;;;;;5076102;28;20178;-78
2023/09/04 05:30:52;;;;;;;3.83;2.80;;;16.70;99.90;;;;;;5075990;28;20178;-81
2023/09/04 05:33:17;;;;;;;2.83;2.73;;;16.70;99.90;;;;;;5075501;28;20191;-79
2023/09/04 05:35:43;;;;;;;2.60;2.50;;;16.70;99.90;;;;;;5075722;28;20178;-79
2023/09/04 05:38:09;;;;;;;3.00;2.70;;;16.80;99.90;;;;;;5075900;28;20178;-79
2023/09/04 05:40:35;;;;;;;2.80;2.70;;;16.80;99.90;;;;;;5075480;28;20218;-78
2023/09/04 05:43:00;;;;;;;3.50;3.30;;;16.90;99.90;;;;;;5075744;28;20179;-81
2023/09/04 05:45:27;;;;;;;3.00;2.90;;;16.90;99.90;;;;;;5077882;28;20254;-80
2023/09/04 05:47:53;;;;;;;3.63;3.30;;;17.00;99.90;;;;;;5075918;28;20174;-81
2023/09/04 05:50:18;;;;;;;3.37;3.07;;;17.00;99.90;;;;;;5075202;28;20255;-79
2023/09/04 05:52:44;;;;;;;3.37;3.20;;;17.10;99.90;;;;;;5074039;28;20232;-80
2023/09/04 05:55:10;;;;;;;3.53;3.23;;;17.20;99.90;;;;;;5074119;28;20258;-80
2023/09/04 05:57:36;;;;;;;3.53;3.33;;;17.20;99.90;;;;;;5075194;28;20166;-79
2023/09/04 06:00:06;;;;;;;3.40;3.20;;;17.20;99.90;;;;;;5074085;28;20766;-81
2023/09/04 06:02:32;;;;;;;3.50;3.30;;;17.30;99.90;;;;;;5076334;28;20631;-80
2023/09/04 06:04:58;;;;;;;3.77;3.47;;;17.40;99.90;;;;;;5076131;28;20209;-79
2023/09/04 06:07:23;;;;;;;3.40;3.20;;;17.50;99.90;;;;;;5075717;28;20261;-83
2023/09/04 06:09:49;;;;;;;4.07;3.27;;;17.60;99.90;;;;;;5076493;28;20175;-84
2023/09/04 06:12:15;;;;;;;3.70;3.40;;;17.80;99.90;;;;;;5075989;28;21026;-84
2023/09/04 06:14:41;;;;;;;3.50;3.13;;;17.60;99.90;;;;;;5080241;28;20191;-84
2023/09/04 06:17:06;;;;;;;4.30;4.00;;;17.50;99.90;;;;;;5096065;28;20248;-81
2023/09/04 06:19:32;;;;;;;5.47;3.40;;;17.40;99.90;;;;;;5093345;28;20211;-82
2023/09/04 06:21:58;;;;;;;3.70;3.40;;;17.50;99.90;;;;;;5077624;28;20199;-83
2023/09/04 06:24:24;;;;;;;3.87;3.43;;;17.40;99.90;;;;;;5084563;28;20194;-84
2023/09/04 06:26:51;;;;;;;3.70;3.50;;;17.40;99.90;;;;;;5079409;28;20202;-84
2023/09/04 06:29:18;;;;;;;4.47;4.10;;;17.40;99.90;;;;;;5077253;28;20174;-84
2023/09/04 06:31:44;;;;;;;3.43;3.23;;;17.40;99.90;;;;;;5088101;28;20186;-85
2023/09/04 06:34:10;;;;;;;3.50;3.20;;;17.40;99.90;;;;;;5062486;28;20167;-87
2023/09/04 06:36:35;;;;;;;3.60;3.40;;;17.40;99.90;;;;;;5075693;28;20664;-85
2023/09/04 06:39:03;;;;;;;3.90;3.13;;;17.40;99.90;;;;;;5075342;28;20186;-85
2023/09/04 06:41:29;;;;;;;4.37;3.80;;;17.50;99.90;;;;;;5084003;28;20181;-80
2023/09/04 06:43:55;;;;;;;3.33;3.13;;;17.50;99.90;;;;;;5080656;28;20721;-81
2023/09/04 06:46:20;;;;;;;3.40;3.20;;;17.50;99.90;;;;;;5075077;28;20203;-80
2023/09/04 06:48:46;;;;;;;4.87;3.27;;;17.60;99.90;;;;;;5075248;28;20175;-82
2023/09/04 06:51:12;;;;;;;4.40;3.30;;;17.70;99.90;;;;;;5074887;28;20476;-84
2023/09/04 06:53:38;;;;;;;5.50;3.60;;;17.70;99.90;;;;;;5075555;28;20234;-84
2023/09/04 06:56:04;;;;;;;4.27;3.63;;;17.70;99.90;;;;;;5075070;28;20168;-84
2023/09/04 06:58:30;;;;;;;4.30;4.00;;;17.80;99.90;;;;;;5075110;28;20245;-85
2023/09/04 07:00:56;;;;;;;3.90;3.60;;;17.80;99.90;;;;;;5074533;28;20302;-83
2023/09/04 07:03:22;;;;;;;3.93;3.63;;;17.80;99.90;;;;;;5075170;28;20163;-85
2023/09/04 07:05:48;;;;;;;4.60;4.20;;;17.90;99.90;;;;;;5075295;28;20167;-83
2023/09/04 07:08:14;;;;;;;5.10;4.33;;;17.80;99.90;;;;;;5080790;28;20163;-83
2023/09/04 07:10:40;;;;;;;4.43;4.13;;;17.90;99.90;;;;;;5079454;28;20172;-83
2023/09/04 07:13:06;;;;;;;4.30;3.90;;;18.00;99.90;;;;;;5078326;28;20178;-83
2023/09/04 07:15:31;;;;;;;4.73;4.33;;;18.00;99.90;;;;;;5076512;28;20295;-85
2023/09/04 07:17:59;;;;;;;5.73;3.63;;;18.20;99.90;;;;;;5075737;28;20222;-83
2023/09/04 07:20:29;;;;;;;4.77;3.83;;;18.30;99.90;;;;;;5074999;28;20207;-83
2023/09/04 07:22:55;;;;;;;3.73;3.47;;;18.40;99.90;;;;;;5074922;28;20230;-84
2023/09/04 07:25:21;;;;;;;3.87;3.60;;;18.60;99.90;;;;;;5075194;28;20175;-84
2023/09/04 07:27:47;;;;;;;3.87;3.57;;;18.90;99.90;;;;;;5077132;28;20202;-84
2023/09/04 07:30:13;;;;;;;3.57;3.23;;;19.10;99.90;;;;;;5080312;28;20167;-85
2023/09/04 07:32:39;;;;;;;5.17;4.17;;;19.20;99.90;;;;;;5075259;28;20584;-86
2023/09/04 07:35:05;;;;;;;6.10;4.40;;;19.30;99.90;;;;;;5075511;28;20189;-86
2023/09/04 07:37:31;;;;;;;4.43;4.07;;;19.30;99.90;;;;;;5075548;28;20167;-86
2023/09/04 07:39:56;;;;;;;4.07;3.47;;;19.40;99.90;;;;;;5076216;28;20332;-86
2023/09/04 07:42:22;;;;;;;3.93;3.50;;;19.50;99.90;;;;;;5090910;28;20175;-83
2023/09/04 07:44:50;;;;;;;3.40;3.20;;;19.60;99.90;;;;;;5078518;28;20627;-84
2023/09/04 07:47:16;;;;;;;4.30;3.30;;;19.80;99.90;;;;;;5074924;28;20233;-84
2023/09/04 07:49:42;;;;;;;3.60;3.40;;;19.90;99.90;;;;;;5074623;28;20183;-85
2023/09/04 07:52:07;;;;;;;4.00;3.70;;;20.00;99.90;;;;;;5074720;28;20210;-84
2023/09/04 07:54:33;;;;;;;4.33;4.03;;;20.10;99.90;;;;;;5074607;28;20175;-85
2023/09/04 07:57:02;;;;;;;4.13;3.83;;;20.10;99.90;;;;;;5074884;28;20182;-87
2023/09/04 07:59:28;;;;;;;3.90;3.70;;;20.30;99.90;;;;;;5075122;28;20199;-84
2023/09/04 08:01:54;;;;;;;4.10;3.80;;;20.30;99.90;;;;;;5075283;28;20526;-83
2023/09/04 08:04:20;;;;;;;3.80;3.50;;;20.50;99.90;;;;;;5076411;28;20178;-85
2023/09/04 08:06:45;;;;;;;6.03;3.97;;;20.60;99.90;;;;;;5097237;28;20183;-81
2023/09/04 08:09:11;;;;;;;3.90;3.60;;;20.70;99.90;;;;;;5097719;28;20183;-81
2023/09/04 08:11:37;;;;;;;4.10;3.80;;;20.80;99.90;;;;;;5078625;28;20626;-83
2023/09/04 08:14:03;;;;;;;4.33;3.97;;;20.90;99.90;;;;;;5075067;28;20626;-85
2023/09/04 08:16:29;;;;;;;4.63;4.20;;;21.00;99.90;;;;;;5056334;28;20179;-85
2023/09/04 08:18:55;;;;;;;4.40;4.00;;;20.90;99.90;;;;;;5080363;28;20175;-84
2023/09/04 08:21:20;;;;;;;3.83;3.60;;;21.10;99.90;;;;;;5091865;28;20278;-83
2023/09/04 08:23:46;;;;;;;4.43;4.07;;;21.20;99.90;;;;;;5079229;28;20203;-83
2023/09/04 08:26:15;;;;;;;3.53;3.30;;;21.30;99.90;;;;;;5078190;28;20175;-84
2023/09/04 08:28:41;;;;;;;4.67;4.00;;;21.20;99.90;;;;;;5078052;28;20167;-83
2023/09/04 08:31:10;;;;;;;3.80;3.50;;;21.20;99.90;;;;;;5078272;28;20175;-84
2023/09/04 08:33:36;;;;;;;3.90;3.70;;;21.10;99.90;;;;;;5077773;28;20186;-85
2023/09/04 08:36:02;;;;;;;4.50;4.10;;;21.10;99.90;;;;;;5077788;28;20523;-83
2023/09/04 08:38:28;;;;;;;4.20;3.87;;;21.00;99.90;;;;;;5077647;28;20172;-83
2023/09/04 08:41:04;;;;;;;3.87;3.63;;;20.90;99.90;;;;;;5079813;28;20205;-84
2023/09/04 08:43:31;;;;;;;4.13;3.67;;;20.80;99.90;;;;;;5065583;28;20509;-85
2023/09/04 08:46:02;;;;;;;5.60;3.60;;;20.90;99.90;;;;;;5062188;28;20194;-83
2023/09/04 08:48:32;;;;;;;4.40;4.00;;;21.00;99.90;;;;;;5078133;28;20495;-86
2023/09/04 08:50:58;;;;;;;3.83;3.53;;;21.10;99.90;;;;;;5078912;28;20162;-83
2023/09/04 08:53:25;;;;;;;4.37;3.97;;;21.10;99.90;;;;;;5078463;28;20179;-82
2023/09/04 08:55:57;;;;;;;3.63;3.43;;;21.20;99.90;;;;;;5086133;28;20171;-85
2023/09/04 08:58:24;;;;;;;3.77;3.47;;;21.20;99.90;;;;;;5093492;28;20159;-83
2023/09/04 09:00:50;;;;;;;3.80;3.60;;;21.10;99.90;;;;;;5090837;28;20245;-84
2023/09/04 09:03:16;;;;;;;4.20;3.90;;;21.10;99.90;;;;;;5088290;28;20630;-83
2023/09/04 09:05:46;;;;;;;4.03;3.67;;;21.00;99.90;;;;;;5094635;28;20175;-84
2023/09/04 09:08:13;;;;;;;3.70;3.50;;;21.00;99.90;;;;;;5092899;28;20203;-84
2023/09/04 09:10:40;;;;;;;4.17;3.90;;;21.00;99.90;;;;;;5076450;28;20213;-85
2023/09/04 09:13:08;;;;;;;3.70;3.50;;;21.00;99.90;;;;;;5084639;28;20179;-85
2023/09/04 09:15:34;;;;;;;3.40;3.20;;;20.90;99.90;;;;;;5079662;28;20171;-85
2023/09/04 09:18:00;;;;;;;3.60;3.40;;;20.90;99.90;;;;;;5076689;28;20231;-86
2023/09/04 09:20:30;;;;;;;3.80;3.60;;;21.00;99.90;;;;;;5077141;28;20390;-84
2023/09/04 09:22:57;;;;;;;3.80;3.50;;;21.00;99.90;;;;;;5076916;28;20593;-83
2023/09/04 09:25:23;;;;;;;4.10;3.80;;;21.00;99.90;;;;;;5077576;28;20258;-85
2023/09/04 09:27:49;;;;;;;4.20;3.80;;;21.10;99.90;;;;;;5076845;28;20229;-85
2023/09/04 09:30:15;;;;;;;3.63;3.43;;;21.10;99.90;;;;;;5079383;28;20175;-87
2023/09/04 09:32:42;;;;;;;3.47;3.00;;;21.10;99.90;;;;;;5077506;28;20237;-85
2023/09/04 09:35:09;;;;;;;3.70;3.50;;;21.20;99.90;;;;;;5077686;28;20174;-86
2023/09/04 09:37:35;;;;;;;4.13;3.83;;;21.30;99.90;;;;;;5078782;28;20255;-85
2023/09/04 09:40:01;;;;;;;6.13;3.50;;;21.40;99.90;;;;;;5060137;28;20253;-84
2023/09/04 09:42:27;;;;;;;3.40;3.30;;;21.40;99.90;;;;;;5076870;28;20175;-86
2023/09/04 09:44:53;;;;;;;3.13;3.03;;;21.50;99.90;;;;;;5077217;28;20626;-84
2023/09/04 09:47:21;;;;;;;4.93;3.73;;;21.60;99.90;;;;;;5086498;28;20178;-83
2023/09/04 09:49:47;;;;;;;3.67;3.47;;;21.60;99.90;;;;;;5068481;28;20178;-86
2023/09/04 09:52:13;;;;;;;3.63;3.23;;;21.60;99.90;;;;;;5078098;28;20171;-85
2023/09/04 09:54:44;;;;;;;6.57;3.80;;;21.70;99.90;;;;;;5059286;28;20252;-84
2023/09/04 09:57:12;;;;;;;3.70;3.40;;;21.70;99.90;;;;;;5095291;28;20179;-84
2023/09/04 09:59:42;;;;;;;3.73;3.43;;;21.70;99.90;;;;;;5099823;28;20198;-82
2023/09/04 10:02:08;;;;;;;4.00;3.30;;;21.70;99.90;;;;;;5085876;28;20225;-85
2023/09/04 10:04:35;;;;;;;3.70;3.50;;;21.70;99.90;;;;;;5077403;28;20627;-84
2023/09/04 10:07:03;;;;;;;3.80;3.50;;;21.70;99.90;;;;;;5077168;28;20643;-84
2023/09/04 10:09:34;;;;;;;3.50;3.40;;;21.60;99.90;;;;;;5077044;28;20175;-85
2023/09/04 10:12:13;;;;;;;4.67;3.60;;;21.70;99.90;;;;;;5077165;28;20191;-85
2023/09/04 10:14:41;;;;;;;3.27;3.17;;;21.70;99.90;;;;;;5077558;28;20159;-84
2023/09/04 10:17:16;;;;;;;3.43;3.23;;;21.70;99.90;;;;;;5076874;28;20214;-85
2023/09/04 10:19:43;;;;;;;3.93;3.63;;;21.80;99.90;;;;;;5076671;28;20201;-86
2023/09/04 10:22:17;;;;;;;7.47;5.10;;;21.80;99.90;;;;;;5076509;28;20190;-86
2023/09/04 10:24:53;;;;;;;3.40;3.20;;;21.70;99.90;;;;;;5077229;28;20220;-84
2023/09/04 10:27:21;;;;;;;3.70;3.50;;;21.70;99.90;;;;;;5092685;28;20183;-82
2023/09/04 10:29:58;;;;;;;3.87;3.57;;;21.70;99.90;;;;;;5079623;28;20310;-85
2023/09/04 10:32:25;;;;;;;3.97;3.77;;;21.60;99.90;;;;;;5076297;28;20547;-87
2023/09/04 10:34:51;;;;;;;3.67;3.33;;;21.60;99.90;;;;;;5076050;28;20178;-84
2023/09/04 10:37:18;;;;;;;3.60;3.40;;;21.70;99.90;;;;;;5058036;28;20189;-86
2023/09/04 10:39:44;;;;;;;3.40;3.10;;;21.70;99.90;;;;;;5057510;28;20203;-87
2023/09/04 10:42:12;;;;;;;3.53;3.37;;;21.70;99.90;;;;;;5075710;28;20175;-87
2023/09/04 10:44:49;;;;;;;3.40;3.20;;;21.70;99.90;;;;;;5075034;28;20183;-86
2023/09/04 10:47:17;;;;;;;3.80;3.43;;;21.70;99.90;;;;;;5067356;28;20622;-85
2023/09/04 10:49:45;;;;;;;3.07;2.90;;;21.90;99.90;;;;;;5065987;28;20175;-87
2023/09/04 10:52:12;;;;;;;3.27;3.17;;;21.90;99.90;;;;;;5083655;28;20167;-86
2023/09/04 10:54:39;;;;;;;3.27;3.07;;;21.90;99.90;;;;;;5083469;28;20171;-86
2023/09/04 10:57:07;;;;;;;3.03;2.83;;;22.00;99.90;;;;;;5083879;28;20186;-86
2023/09/04 10:59:55;;;;;;;4.50;3.13;;;22.00;99.90;;;;;;5082504;28;20205;-85
2023/09/04 11:02:28;;;;;;;3.10;3.00;;;21.90;99.90;;;;;;5082933;28;20171;-85
2023/09/04 11:04:56;;;;;;;3.57;3.13;;;22.00;99.90;;;;;;5064512;28;20228;-86
2023/09/04 11:07:23;;;;;;;3.03;2.83;;;22.00;99.90;;;;;;5083787;28;21077;-84
2023/09/04 11:10:01;;;;;;;3.03;2.87;;;22.00;99.90;;;;;;5082302;28;20174;-85
2023/09/04 11:12:27;;;;;;;3.20;3.03;;;22.00;99.90;;;;;;5080800;28;20163;-82
2023/09/04 11:14:56;;;;;;;3.30;3.03;;;22.10;99.90;;;;;;5063270;28;20198;-86
2023/09/04 11:17:32;;;;;;;2.87;2.70;;;22.10;99.90;;;;;;5078772;28;20219;-84
2023/09/04 11:20:09;;;;;;;2.90;2.80;;;22.20;99.90;;;;;;5077431;28;20203;-82
2023/09/04 11:22:35;;;;;;;4.07;2.47;;;22.30;99.90;;;;;;5060176;28;20248;-83
2023/09/04 11:25:01;;;;;;;3.35;3.05;;;22.40;99.90;;;;;;5095754;28;20171;-86
2023/09/04 11:27:30;;;;;;;3.57;3.27;;;22.40;99.90;;;;;;5077870;28;20204;-85
2023/09/04 11:30:01;;;;;;;2.90;2.70;;;22.30;99.90;;;;;;5057549;28;20176;-85
2023/09/04 11:32:28;;;;;;;2.72;2.63;;;22.20;99.90;;;;;;5058187;28;20179;-84
2023/09/04 11:34:55;;;;;;;2.57;2.47;;;22.30;99.90;;;;;;5081169;28;20144;-83
2023/09/04 11:37:21;;;;;;;3.00;2.77;;;22.30;99.90;;;;;;5093238;28;20188;-86
2023/09/04 11:39:55;;;;;;;2.83;2.63;;;22.30;99.90;;;;;;5077135;28;20240;-85
2023/09/04 11:42:24;;;;;;;3.00;2.80;;;22.40;99.90;;;;;;5075556;28;20246;-85
2023/09/04 11:44:50;;;;;;;2.93;2.70;;;22.40;99.90;;;;;;5077776;28;20175;-85
2023/09/04 11:47:18;;;;;;;2.50;2.40;;;22.50;99.90;;;;;;5097585;28;20156;-83
2023/09/04 11:49:44;;;;;;;2.73;2.63;;;22.60;99.90;;;;;;5098319;28;20175;-80
2023/09/04 11:52:12;;;;;;;3.37;3.17;;;22.60;99.90;;;;;;5098170;28;20171;-81
2023/09/04 11:54:41;;;;;;;3.40;3.20;;;22.50;99.90;;;;;;5085933;28;20224;-85
2023/09/04 11:57:13;;;;;;;3.13;2.92;;;22.50;99.90;;;;;;5075092;28;20242;-86
2023/09/04 11:59:42;;;;;;;3.63;3.33;;;22.50;99.90;;;;;;5075748;28;20206;-86
2023/09/04 12:02:08;;;;;;;2.70;2.60;;;22.50;99.90;;;;;;5075366;28;20526;-86
2023/09/04 12:04:35;;;;;;;2.40;2.30;;;22.50;99.90;;;;;;5075781;28;20193;-86
2023/09/04 12:07:05;;;;;;;2.58;2.40;;;22.50;99.90;;;;;;5075143;28;20174;-87
2023/09/04 12:09:34;;;;;;;2.23;2.13;;;22.60;99.90;;;;;;5075580;28;20209;-87
2023/09/04 12:12:04;;;;;;;2.63;2.33;;;22.70;99.90;;;;;;5075753;28;20159;-86
2023/09/04 12:14:30;;;;;;;2.70;2.60;;;22.80;99.90;;;;;;5075229;28;20203;-86
2023/09/04 12:16:56;;;;;;;2.70;2.50;;;22.70;99.90;;;;;;5075552;28;20206;-86
2023/09/04 12:19:26;;;;;;;2.80;2.70;;;22.70;99.90;;;;;;5075133;28;20194;-85
2023/09/04 12:21:52;;;;;;;2.57;2.47;;;22.70;99.90;;;;;;5074978;28;20192;-86
2023/09/04 12:24:19;;;;;;;2.63;2.53;;;22.70;99.90;;;;;;5075337;28;20693;-86
2023/09/04 12:26:48;;;;;;;3.85;2.80;;;22.80;99.90;;;;;;5075185;28;20191;-87
2023/09/04 12:29:14;;;;;;;2.53;2.42;;;22.70;99.90;;;;;;5075290;28;20545;-85
2023/09/04 12:31:44;;;;;;;2.20;2.00;;;22.90;99.90;;;;;;5075020;28;20194;-86
2023/09/04 12:34:10;;;;;;;2.70;2.50;;;22.90;99.90;;;;;;5057620;28;20198;-85
2023/09/04 12:36:36;;;;;;;2.20;2.10;;;22.80;99.90;;;;;;5075511;28;20649;-86
2023/09/04 12:39:02;;;;;;;2.40;2.30;;;22.70;99.90;;;;;;5076306;28;20190;-86
2023/09/04 12:41:28;;;;;;;2.30;2.20;;;22.70;99.90;;;;;;5058641;28;20183;-84
2023/09/04 12:43:54;;;;;;;2.00;2.00;;;22.80;99.90;;;;;;5075756;28;20171;-81
2023/09/04 12:46:20;;;;;;;2.27;2.17;;;22.90;99.90;;;;;;5075170;28;20171;-86